sensor_id;sensor_type;location;lat;lon;timestamp;P1;durP1;ratioP1;P2;durP2;ratioP2
22213;SDS011;11276;43.566;27.824;2022-09-01T00:01:35;21.90;;;10.23;;
22213;SDS011;11276;43.566;27.824;2022-09-01T00:04:07;17.43;;;10.10;;
22213;SDS011;11276;43.566;27.824;2022-09-01T00:06:36;16.87;;;9.93;;
22213;SDS011;11276;43.566;27.824;2022-09-01T00:09:07;19.60;;;9.73;;
22213;SDS011;11276;43.566;27.824;2022-09-01T00:11:37;26.27;;;9.73;;
22213;SDS011;11276;43.566;27.824;2022-09-01T00:14:06;14.73;;;9.50;;
22213;SDS011;11276;43.566;27.824;2022-09-01T00:16:35;15.10;;;9.53;;
22213;SDS011;11276;43.566;27.824;2022-09-01T00:19:02;16.20;;;9.37;;
22213;SDS011;11276;43.566;27.824;2022-09-01T00:21:31;14.20;;;9.67;;
22213;SDS011;11276;43.566;27.824;2022-09-01T00:24:08;16.73;;;9.20;;
22213;SDS011;11276;43.566;27.824;2022-09-01T00:26:35;15.00;;;8.97;;
22213;SDS011;11276;43.566;27.824;2022-09-01T00:29:03;21.53;;;9.70;;
22213;SDS011;11276;43.566;27.824;2022-09-01T00:31:30;21.40;;;9.63;;
22213;SDS011;11276;43.566;27.824;2022-09-01T00:33:57;20.97;;;10.67;;
22213;SDS011;11276;43.566;27.824;2022-09-01T00:36:24;13.57;;;9.43;;
22213;SDS011;11276;43.566;27.824;2022-09-01T00:38:51;17.93;;;9.50;;
22213;SDS011;11276;43.566;27.824;2022-09-01T00:41:19;12.50;;;8.67;;
22213;SDS011;11276;43.566;27.824;2022-09-01T00:43:48;22.40;;;9.67;;
22213;SDS011;11276;43.566;27.824;2022-09-01T00:46:20;13.27;;;8.90;;
22213;SDS011;11276;43.566;27.824;2022-09-01T00:49:00;12.77;;;8.63;;
22213;SDS011;11276;43.566;27.824;2022-09-01T00:51:31;15.80;;;8.10;;
22213;SDS011;11276;43.566;27.824;2022-09-01T00:54:00;19.50;;;8.90;;
22213;SDS011;11276;43.566;27.824;2022-09-01T00:56:28;18.30;;;9.27;;
22213;SDS011;11276;43.566;27.824;2022-09-01T00:58:57;15.53;;;9.17;;
22213;SDS011;11276;43.566;27.824;2022-09-01T01:01:25;13.20;;;8.50;;
22213;SDS011;11276;43.566;27.824;2022-09-01T01:03:52;17.80;;;9.30;;
22213;SDS011;11276;43.566;27.824;2022-09-01T01:06:19;14.07;;;9.20;;
22213;SDS011;11276;43.566;27.824;2022-09-01T01:08:52;14.87;;;9.10;;
22213;SDS011;11276;43.566;27.824;2022-09-01T01:11:27;19.80;;;8.50;;
22213;SDS011;11276;43.566;27.824;2022-09-01T01:13:59;16.03;;;9.03;;
22213;SDS011;11276;43.566;27.824;2022-09-01T01:16:38;17.40;;;9.77;;
22213;SDS011;11276;43.566;27.824;2022-09-01T01:19:16;12.73;;;8.93;;
22213;SDS011;11276;43.566;27.824;2022-09-01T01:22:38;13.73;;;8.23;;
22213;SDS011;11276;43.566;27.824;2022-09-01T01:25:25;16.80;;;8.60;;
22213;SDS011;11276;43.566;27.824;2022-09-01T01:28:01;17.00;;;7.90;;
22213;SDS011;11276;43.566;27.824;2022-09-01T01:30:29;19.50;;;8.43;;
22213;SDS011;11276;43.566;27.824;2022-09-01T01:33:00;14.13;;;8.30;;
22213;SDS011;11276;43.566;27.824;2022-09-01T01:35:27;26.87;;;9.20;;
22213;SDS011;11276;43.566;27.824;2022-09-01T01:37:54;12.03;;;7.93;;
22213;SDS011;11276;43.566;27.824;2022-09-01T01:40:21;17.43;;;8.73;;
22213;SDS011;11276;43.566;27.824;2022-09-01T01:42:50;12.67;;;8.43;;
22213;SDS011;11276;43.566;27.824;2022-09-01T01:45:20;13.80;;;7.83;;
22213;SDS011;11276;43.566;27.824;2022-09-01T01:47:49;19.10;;;9.47;;
22213;SDS011;11276;43.566;27.824;2022-09-01T01:50:23;12.70;;;8.60;;
22213;SDS011;11276;43.566;27.824;2022-09-01T01:52:52;13.60;;;7.80;;
22213;SDS011;11276;43.566;27.824;2022-09-01T01:55:20;11.40;;;8.77;;
22213;SDS011;11276;43.566;27.824;2022-09-01T01:57:49;16.37;;;8.13;;
22213;SDS011;11276;43.566;27.824;2022-09-01T02:00:17;16.90;;;9.30;;
22213;SDS011;11276;43.566;27.824;2022-09-01T02:02:46;14.70;;;8.70;;
22213;SDS011;11276;43.566;27.824;2022-09-01T02:05:21;12.57;;;8.60;;
22213;SDS011;11276;43.566;27.824;2022-09-01T02:07:55;13.63;;;8.30;;
22213;SDS011;11276;43.566;27.824;2022-09-01T02:10:26;10.43;;;7.80;;
22213;SDS011;11276;43.566;27.824;2022-09-01T02:12:56;21.00;;;8.70;;
22213;SDS011;11276;43.566;27.824;2022-09-01T02:15:34;14.57;;;8.40;;
22213;SDS011;11276;43.566;27.824;2022-09-01T02:18:17;15.23;;;8.50;;
22213;SDS011;11276;43.566;27.824;2022-09-01T02:20:50;13.87;;;7.63;;
22213;SDS011;11276;43.566;27.824;2022-09-01T02:23:18;15.63;;;8.10;;
22213;SDS011;11276;43.566;27.824;2022-09-01T02:25:51;12.47;;;8.53;;
22213;SDS011;11276;43.566;27.824;2022-09-01T02:28:42;12.43;;;8.20;;
22213;SDS011;11276;43.566;27.824;2022-09-01T02:31:12;13.43;;;7.33;;
22213;SDS011;11276;43.566;27.824;2022-09-01T02:33:39;18.27;;;7.40;;
22213;SDS011;11276;43.566;27.824;2022-09-01T02:36:13;10.20;;;7.53;;
22213;SDS011;11276;43.566;27.824;2022-09-01T02:38:43;12.30;;;7.83;;
22213;SDS011;11276;43.566;27.824;2022-09-01T02:41:11;10.40;;;7.73;;
22213;SDS011;11276;43.566;27.824;2022-09-01T02:43:40;12.90;;;8.60;;
22213;SDS011;11276;43.566;27.824;2022-09-01T02:46:09;13.67;;;8.00;;
22213;SDS011;11276;43.566;27.824;2022-09-01T02:48:36;17.73;;;7.17;;
22213;SDS011;11276;43.566;27.824;2022-09-01T02:51:06;11.23;;;7.33;;
22213;SDS011;11276;43.566;27.824;2022-09-01T02:53:35;13.93;;;7.90;;
22213;SDS011;11276;43.566;27.824;2022-09-01T02:56:03;12.17;;;7.80;;
22213;SDS011;11276;43.566;27.824;2022-09-01T02:58:35;11.53;;;7.53;;
22213;SDS011;11276;43.566;27.824;2022-09-01T03:01:12;12.50;;;7.60;;
22213;SDS011;11276;43.566;27.824;2022-09-01T03:03:39;25.30;;;7.87;;
22213;SDS011;11276;43.566;27.824;2022-09-01T03:06:06;15.10;;;7.30;;
22213;SDS011;11276;43.566;27.824;2022-09-01T03:08:35;10.73;;;7.00;;
22213;SDS011;11276;43.566;27.824;2022-09-01T03:11:04;13.27;;;7.13;;
22213;SDS011;11276;43.566;27.824;2022-09-01T03:13:38;16.50;;;8.43;;
22213;SDS011;11276;43.566;27.824;2022-09-01T03:16:06;13.83;;;7.17;;
22213;SDS011;11276;43.566;27.824;2022-09-01T03:18:33;12.93;;;6.90;;
22213;SDS011;11276;43.566;27.824;2022-09-01T03:21:00;11.37;;;7.00;;
22213;SDS011;11276;43.566;27.824;2022-09-01T03:23:28;13.17;;;8.57;;
22213;SDS011;11276;43.566;27.824;2022-09-01T03:25:56;15.43;;;7.63;;
22213;SDS011;11276;43.566;27.824;2022-09-01T03:28:23;15.60;;;7.27;;
22213;SDS011;11276;43.566;27.824;2022-09-01T03:30:52;17.60;;;7.60;;
22213;SDS011;11276;43.566;27.824;2022-09-01T03:33:21;13.47;;;7.43;;
22213;SDS011;11276;43.566;27.824;2022-09-01T03:35:49;12.63;;;8.20;;
22213;SDS011;11276;43.566;27.824;2022-09-01T03:38:16;15.83;;;6.90;;
22213;SDS011;11276;43.566;27.824;2022-09-01T03:40:54;14.33;;;7.00;;
22213;SDS011;11276;43.566;27.824;2022-09-01T03:43:31;13.13;;;7.53;;
22213;SDS011;11276;43.566;27.824;2022-09-01T03:45:59;15.60;;;7.50;;
22213;SDS011;11276;43.566;27.824;2022-09-01T03:48:27;11.93;;;7.17;;
22213;SDS011;11276;43.566;27.824;2022-09-01T03:50:55;10.23;;;7.10;;
22213;SDS011;11276;43.566;27.824;2022-09-01T03:53:28;11.00;;;7.03;;
22213;SDS011;11276;43.566;27.824;2022-09-01T03:55:57;15.50;;;7.17;;
22213;SDS011;11276;43.566;27.824;2022-09-01T03:58:25;13.87;;;7.17;;
22213;SDS011;11276;43.566;27.824;2022-09-01T04:00:53;10.33;;;6.87;;
22213;SDS011;11276;43.566;27.824;2022-09-01T04:03:22;12.97;;;7.80;;
22213;SDS011;11276;43.566;27.824;2022-09-01T04:05:51;13.20;;;7.43;;
22213;SDS011;11276;43.566;27.824;2022-09-01T04:08:19;15.83;;;7.50;;
22213;SDS011;11276;43.566;27.824;2022-09-01T04:10:57;18.13;;;7.97;;
22213;SDS011;11276;43.566;27.824;2022-09-01T04:13:29;14.90;;;8.33;;
22213;SDS011;11276;43.566;27.824;2022-09-01T04:15:59;14.47;;;8.50;;
22213;SDS011;11276;43.566;27.824;2022-09-01T04:18:26;22.87;;;8.93;;
22213;SDS011;11276;43.566;27.824;2022-09-01T04:20:56;11.50;;;6.83;;
22213;SDS011;11276;43.566;27.824;2022-09-01T04:23:25;14.50;;;8.37;;
22213;SDS011;11276;43.566;27.824;2022-09-01T04:26:05;21.03;;;7.97;;
22213;SDS011;11276;43.566;27.824;2022-09-01T04:28:40;22.33;;;8.30;;
22213;SDS011;11276;43.566;27.824;2022-09-01T04:31:12;38.30;;;8.83;;
22213;SDS011;11276;43.566;27.824;2022-09-01T04:33:48;17.33;;;7.97;;
22213;SDS011;11276;43.566;27.824;2022-09-01T04:36:21;16.80;;;8.30;;
22213;SDS011;11276;43.566;27.824;2022-09-01T04:38:52;16.20;;;7.43;;
22213;SDS011;11276;43.566;27.824;2022-09-01T04:41:25;22.43;;;8.60;;
22213;SDS011;11276;43.566;27.824;2022-09-01T04:43:57;19.37;;;8.70;;
22213;SDS011;11276;43.566;27.824;2022-09-01T04:46:34;13.67;;;8.20;;
22213;SDS011;11276;43.566;27.824;2022-09-01T04:49:08;14.53;;;7.63;;
22213;SDS011;11276;43.566;27.824;2022-09-01T04:51:37;20.90;;;8.23;;
22213;SDS011;11276;43.566;27.824;2022-09-01T04:54:05;21.63;;;8.30;;
22213;SDS011;11276;43.566;27.824;2022-09-01T04:56:36;15.00;;;8.20;;
22213;SDS011;11276;43.566;27.824;2022-09-01T04:59:04;24.73;;;8.33;;
22213;SDS011;11276;43.566;27.824;2022-09-01T05:01:33;14.33;;;7.80;;
22213;SDS011;11276;43.566;27.824;2022-09-01T05:04:12;16.97;;;9.00;;
22213;SDS011;11276;43.566;27.824;2022-09-01T05:06:43;13.23;;;8.10;;
22213;SDS011;11276;43.566;27.824;2022-09-01T05:09:12;14.70;;;7.67;;
22213;SDS011;11276;43.566;27.824;2022-09-01T05:11:39;15.40;;;9.47;;
22213;SDS011;11276;43.566;27.824;2022-09-01T05:14:08;50.10;;;12.23;;
22213;SDS011;11276;43.566;27.824;2022-09-01T05:16:35;17.20;;;8.80;;
22213;SDS011;11276;43.566;27.824;2022-09-01T05:19:06;19.20;;;8.63;;
22213;SDS011;11276;43.566;27.824;2022-09-01T05:21:40;11.37;;;7.10;;
22213;SDS011;11276;43.566;27.824;2022-09-01T05:24:14;19.53;;;8.43;;
22213;SDS011;11276;43.566;27.824;2022-09-01T05:26:43;12.80;;;7.00;;
22213;SDS011;11276;43.566;27.824;2022-09-01T05:29:13;13.80;;;7.07;;
22213;SDS011;11276;43.566;27.824;2022-09-01T05:31:42;17.53;;;7.43;;
22213;SDS011;11276;43.566;27.824;2022-09-01T05:34:11;25.60;;;7.30;;
22213;SDS011;11276;43.566;27.824;2022-09-01T05:36:42;19.17;;;8.13;;
22213;SDS011;11276;43.566;27.824;2022-09-01T05:39:10;13.70;;;6.37;;
22213;SDS011;11276;43.566;27.824;2022-09-01T05:41:41;12.33;;;7.33;;
22213;SDS011;11276;43.566;27.824;2022-09-01T05:44:08;35.23;;;8.50;;
22213;SDS011;11276;43.566;27.824;2022-09-01T05:46:37;15.53;;;7.20;;
22213;SDS011;11276;43.566;27.824;2022-09-01T05:49:05;14.87;;;6.70;;
22213;SDS011;11276;43.566;27.824;2022-09-01T05:51:34;18.27;;;7.97;;
22213;SDS011;11276;43.566;27.824;2022-09-01T05:54:10;19.07;;;7.07;;
22213;SDS011;11276;43.566;27.824;2022-09-01T05:56:37;16.73;;;6.40;;
22213;SDS011;11276;43.566;27.824;2022-09-01T05:59:08;17.73;;;6.53;;
22213;SDS011;11276;43.566;27.824;2022-09-01T06:01:52;24.93;;;7.23;;
22213;SDS011;11276;43.566;27.824;2022-09-01T06:04:20;30.20;;;7.97;;
22213;SDS011;11276;43.566;27.824;2022-09-01T06:06:50;17.07;;;6.37;;
22213;SDS011;11276;43.566;27.824;2022-09-01T06:09:38;16.00;;;6.33;;
22213;SDS011;11276;43.566;27.824;2022-09-01T06:12:06;23.13;;;6.73;;
22213;SDS011;11276;43.566;27.824;2022-09-01T06:14:43;14.97;;;6.73;;
22213;SDS011;11276;43.566;27.824;2022-09-01T06:17:11;19.90;;;6.87;;
22213;SDS011;11276;43.566;27.824;2022-09-01T06:19:41;15.33;;;6.07;;
22213;SDS011;11276;43.566;27.824;2022-09-01T06:22:08;18.03;;;6.20;;
22213;SDS011;11276;43.566;27.824;2022-09-01T06:24:36;15.40;;;5.83;;
22213;SDS011;11276;43.566;27.824;2022-09-01T06:27:08;12.90;;;6.03;;
22213;SDS011;11276;43.566;27.824;2022-09-01T06:29:35;17.30;;;6.10;;
22213;SDS011;11276;43.566;27.824;2022-09-01T06:32:05;13.27;;;5.83;;
22213;SDS011;11276;43.566;27.824;2022-09-01T06:34:38;16.20;;;6.63;;
22213;SDS011;11276;43.566;27.824;2022-09-01T06:37:07;16.90;;;6.50;;
22213;SDS011;11276;43.566;27.824;2022-09-01T06:39:35;11.90;;;5.40;;
22213;SDS011;11276;43.566;27.824;2022-09-01T06:42:02;20.10;;;5.63;;
22213;SDS011;11276;43.566;27.824;2022-09-01T06:44:30;15.13;;;5.77;;
22213;SDS011;11276;43.566;27.824;2022-09-01T06:46:57;9.47;;;4.60;;
22213;SDS011;11276;43.566;27.824;2022-09-01T06:49:27;11.73;;;4.80;;
22213;SDS011;11276;43.566;27.824;2022-09-01T06:52:02;6.07;;;4.43;;
22213;SDS011;11276;43.566;27.824;2022-09-01T06:54:29;9.40;;;4.67;;
22213;SDS011;11276;43.566;27.824;2022-09-01T06:56:59;9.47;;;4.50;;
22213;SDS011;11276;43.566;27.824;2022-09-01T06:59:49;11.53;;;4.53;;
22213;SDS011;11276;43.566;27.824;2022-09-01T07:02:16;9.10;;;4.80;;
22213;SDS011;11276;43.566;27.824;2022-09-01T07:04:43;8.83;;;4.73;;
22213;SDS011;11276;43.566;27.824;2022-09-01T07:07:11;10.90;;;4.60;;
22213;SDS011;11276;43.566;27.824;2022-09-01T07:09:58;6.57;;;4.10;;
22213;SDS011;11276;43.566;27.824;2022-09-01T07:12:43;6.33;;;4.30;;
22213;SDS011;11276;43.566;27.824;2022-09-01T07:15:30;6.23;;;4.13;;
22213;SDS011;11276;43.566;27.824;2022-09-01T07:18:18;4.47;;;3.67;;
22213;SDS011;11276;43.566;27.824;2022-09-01T07:20:47;8.10;;;3.67;;
22213;SDS011;11276;43.566;27.824;2022-09-01T07:23:34;10.67;;;4.20;;
22213;SDS011;11276;43.566;27.824;2022-09-01T07:26:12;7.83;;;4.27;;
22213;SDS011;11276;43.566;27.824;2022-09-01T07:28:49;6.57;;;4.13;;
22213;SDS011;11276;43.566;27.824;2022-09-01T07:31:27;6.63;;;4.30;;
22213;SDS011;11276;43.566;27.824;2022-09-01T07:34:17;7.87;;;4.10;;
22213;SDS011;11276;43.566;27.824;2022-09-01T07:37:04;11.27;;;4.27;;
22213;SDS011;11276;43.566;27.824;2022-09-01T07:39:51;8.13;;;4.33;;
22213;SDS011;11276;43.566;27.824;2022-09-01T07:42:18;5.50;;;4.40;;
22213;SDS011;11276;43.566;27.824;2022-09-01T07:45:07;13.13;;;4.37;;
22213;SDS011;11276;43.566;27.824;2022-09-01T07:47:51;5.40;;;3.37;;
22213;SDS011;11276;43.566;27.824;2022-09-01T07:50:23;11.73;;;4.30;;
22213;SDS011;11276;43.566;27.824;2022-09-01T07:53:22;10.83;;;4.00;;
22213;SDS011;11276;43.566;27.824;2022-09-01T07:55:49;7.17;;;3.97;;
22213;SDS011;11276;43.566;27.824;2022-09-01T07:58:22;5.80;;;4.00;;
22213;SDS011;11276;43.566;27.824;2022-09-01T08:00:50;5.70;;;4.07;;
22213;SDS011;11276;43.566;27.824;2022-09-01T08:03:19;8.60;;;4.17;;
22213;SDS011;11276;43.566;27.824;2022-09-01T08:05:48;4.67;;;3.90;;
22213;SDS011;11276;43.566;27.824;2022-09-01T08:08:19;10.13;;;4.90;;
22213;SDS011;11276;43.566;27.824;2022-09-01T08:10:46;8.80;;;4.70;;
22213;SDS011;11276;43.566;27.824;2022-09-01T08:13:14;7.30;;;3.87;;
22213;SDS011;11276;43.566;27.824;2022-09-01T08:15:42;10.50;;;4.87;;
22213;SDS011;11276;43.566;27.824;2022-09-01T08:18:28;11.53;;;4.27;;
22213;SDS011;11276;43.566;27.824;2022-09-01T08:21:13;10.13;;;4.50;;
22213;SDS011;11276;43.566;27.824;2022-09-01T08:23:40;5.60;;;3.60;;
22213;SDS011;11276;43.566;27.824;2022-09-01T08:26:09;6.67;;;4.00;;
22213;SDS011;11276;43.566;27.824;2022-09-01T08:28:38;5.13;;;4.23;;
22213;SDS011;11276;43.566;27.824;2022-09-01T08:31:12;6.10;;;4.00;;
22213;SDS011;11276;43.566;27.824;2022-09-01T08:33:40;6.20;;;3.70;;
22213;SDS011;11276;43.566;27.824;2022-09-01T08:36:08;4.93;;;4.10;;
22213;SDS011;11276;43.566;27.824;2022-09-01T08:38:37;7.53;;;4.37;;
22213;SDS011;11276;43.566;27.824;2022-09-01T08:41:05;5.63;;;3.70;;
22213;SDS011;11276;43.566;27.824;2022-09-01T08:43:49;7.80;;;4.23;;
22213;SDS011;11276;43.566;27.824;2022-09-01T08:46:40;5.43;;;4.20;;
22213;SDS011;11276;43.566;27.824;2022-09-01T08:49:11;9.10;;;4.60;;
22213;SDS011;11276;43.566;27.824;2022-09-01T08:51:56;5.00;;;3.80;;
22213;SDS011;11276;43.566;27.824;2022-09-01T08:54:32;4.93;;;3.40;;
22213;SDS011;11276;43.566;27.824;2022-09-01T08:57:09;5.07;;;3.87;;
22213;SDS011;11276;43.566;27.824;2022-09-01T08:59:41;5.57;;;4.10;;
22213;SDS011;11276;43.566;27.824;2022-09-01T09:05:04;5.93;;;3.80;;
22213;SDS011;11276;43.566;27.824;2022-09-01T09:16:26;12.80;;;5.97;;
22213;SDS011;11276;43.566;27.824;2022-09-01T09:19:02;11.20;;;5.77;;
22213;SDS011;11276;43.566;27.824;2022-09-01T09:21:40;7.33;;;4.30;;
22213;SDS011;11276;43.566;27.824;2022-09-01T09:24:28;10.33;;;5.20;;
22213;SDS011;11276;43.566;27.824;2022-09-01T09:27:16;8.80;;;4.40;;
22213;SDS011;11276;43.566;27.824;2022-09-01T09:29:46;7.60;;;4.53;;
22213;SDS011;11276;43.566;27.824;2022-09-01T09:32:16;11.03;;;4.30;;
22213;SDS011;11276;43.566;27.824;2022-09-01T09:35:08;8.43;;;4.20;;
22213;SDS011;11276;43.566;27.824;2022-09-01T09:37:52;11.67;;;4.10;;
22213;SDS011;11276;43.566;27.824;2022-09-01T09:40:20;13.47;;;4.53;;
22213;SDS011;11276;43.566;27.824;2022-09-01T09:47:49;10.37;;;4.60;;
22213;SDS011;11276;43.566;27.824;2022-09-01T09:50:24;8.63;;;4.53;;
22213;SDS011;11276;43.566;27.824;2022-09-01T09:55:59;6.17;;;4.23;;
22213;SDS011;11276;43.566;27.824;2022-09-01T09:58:59;7.93;;;4.23;;
22213;SDS011;11276;43.566;27.824;2022-09-01T10:01:28;10.50;;;5.10;;
22213;SDS011;11276;43.566;27.824;2022-09-01T10:03:57;9.80;;;4.60;;
22213;SDS011;11276;43.566;27.824;2022-09-01T10:09:05;4.37;;;3.77;;
22213;SDS011;11276;43.566;27.824;2022-09-01T10:11:41;8.60;;;5.20;;
22213;SDS011;11276;43.566;27.824;2022-09-01T10:14:15;9.30;;;4.90;;
22213;SDS011;11276;43.566;27.824;2022-09-01T10:16:49;6.60;;;3.97;;
22213;SDS011;11276;43.566;27.824;2022-09-01T10:19:22;8.50;;;4.30;;
22213;SDS011;11276;43.566;27.824;2022-09-01T10:21:54;12.13;;;3.90;;
22213;SDS011;11276;43.566;27.824;2022-09-01T10:26:59;7.70;;;4.10;;
22213;SDS011;11276;43.566;27.824;2022-09-01T10:32:44;18.03;;;4.80;;
22213;SDS011;11276;43.566;27.824;2022-09-01T10:35:27;5.27;;;4.17;;
22213;SDS011;11276;43.566;27.824;2022-09-01T10:37:57;8.23;;;5.07;;
22213;SDS011;11276;43.566;27.824;2022-09-01T10:42:56;6.13;;;4.50;;
22213;SDS011;11276;43.566;27.824;2022-09-01T10:46:08;5.97;;;4.53;;
22213;SDS011;11276;43.566;27.824;2022-09-01T10:48:55;12.27;;;4.90;;
22213;SDS011;11276;43.566;27.824;2022-09-01T10:54:01;11.90;;;5.20;;
22213;SDS011;11276;43.566;27.824;2022-09-01T11:02:04;9.63;;;5.33;;
22213;SDS011;11276;43.566;27.824;2022-09-01T11:07:32;31.43;;;5.80;;
22213;SDS011;11276;43.566;27.824;2022-09-01T11:27:08;18.73;;;4.83;;
22213;SDS011;11276;43.566;27.824;2022-09-01T11:29:54;19.57;;;4.47;;
22213;SDS011;11276;43.566;27.824;2022-09-01T11:32:25;10.20;;;4.77;;
22213;SDS011;11276;43.566;27.824;2022-09-01T11:34:58;18.50;;;6.50;;
22213;SDS011;11276;43.566;27.824;2022-09-01T11:37:30;12.10;;;4.83;;
22213;SDS011;11276;43.566;27.824;2022-09-01T11:39:59;8.03;;;4.70;;
22213;SDS011;11276;43.566;27.824;2022-09-01T11:42:47;10.57;;;5.17;;
22213;SDS011;11276;43.566;27.824;2022-09-01T11:45:24;8.03;;;4.83;;
22213;SDS011;11276;43.566;27.824;2022-09-01T11:47:54;12.60;;;5.47;;
22213;SDS011;11276;43.566;27.824;2022-09-01T11:50:26;8.67;;;5.20;;
22213;SDS011;11276;43.566;27.824;2022-09-01T11:52:55;10.67;;;4.73;;
22213;SDS011;11276;43.566;27.824;2022-09-01T11:55:35;14.43;;;5.33;;
22213;SDS011;11276;43.566;27.824;2022-09-01T11:58:05;11.80;;;5.37;;
22213;SDS011;11276;43.566;27.824;2022-09-01T12:00:57;10.40;;;5.07;;
22213;SDS011;11276;43.566;27.824;2022-09-01T12:03:56;10.83;;;5.57;;
22213;SDS011;11276;43.566;27.824;2022-09-01T12:06:25;9.50;;;5.30;;
22213;SDS011;11276;43.566;27.824;2022-09-01T12:08:58;9.73;;;5.30;;
22213;SDS011;11276;43.566;27.824;2022-09-01T12:11:28;12.60;;;5.93;;
22213;SDS011;11276;43.566;27.824;2022-09-01T12:13:58;9.10;;;5.20;;
22213;SDS011;11276;43.566;27.824;2022-09-01T12:16:28;12.53;;;5.37;;
22213;SDS011;11276;43.566;27.824;2022-09-01T12:18:57;11.43;;;5.90;;
22213;SDS011;11276;43.566;27.824;2022-09-01T12:24:12;8.43;;;5.40;;
22213;SDS011;11276;43.566;27.824;2022-09-01T12:26:40;13.63;;;5.73;;
22213;SDS011;11276;43.566;27.824;2022-09-01T12:29:07;18.70;;;6.13;;
22213;SDS011;11276;43.566;27.824;2022-09-01T12:31:36;8.97;;;5.20;;
22213;SDS011;11276;43.566;27.824;2022-09-01T12:34:06;12.33;;;5.03;;
22213;SDS011;11276;43.566;27.824;2022-09-01T12:39:42;9.13;;;5.23;;
22213;SDS011;11276;43.566;27.824;2022-09-01T12:42:21;13.90;;;5.37;;
22213;SDS011;11276;43.566;27.824;2022-09-01T12:44:56;9.30;;;5.07;;
22213;SDS011;11276;43.566;27.824;2022-09-01T12:52:34;11.97;;;5.50;;
22213;SDS011;11276;43.566;27.824;2022-09-01T13:05:19;12.33;;;5.37;;
22213;SDS011;11276;43.566;27.824;2022-09-01T13:08:09;7.20;;;5.33;;
22213;SDS011;11276;43.566;27.824;2022-09-01T13:10:45;17.73;;;6.50;;
22213;SDS011;11276;43.566;27.824;2022-09-01T13:13:18;21.10;;;6.17;;
22213;SDS011;11276;43.566;27.824;2022-09-01T13:15:48;11.67;;;5.37;;
22213;SDS011;11276;43.566;27.824;2022-09-01T13:18:16;13.00;;;5.23;;
22213;SDS011;11276;43.566;27.824;2022-09-01T13:20:44;11.03;;;5.10;;
22213;SDS011;11276;43.566;27.824;2022-09-01T13:23:11;9.57;;;5.43;;
22213;SDS011;11276;43.566;27.824;2022-09-01T13:25:38;11.83;;;5.90;;
22213;SDS011;11276;43.566;27.824;2022-09-01T13:28:06;11.10;;;6.07;;
22213;SDS011;11276;43.566;27.824;2022-09-01T13:30:36;12.73;;;4.43;;
22213;SDS011;11276;43.566;27.824;2022-09-01T13:33:04;14.10;;;5.23;;
22213;SDS011;11276;43.566;27.824;2022-09-01T13:35:46;9.73;;;5.30;;
22213;SDS011;11276;43.566;27.824;2022-09-01T13:38:14;8.30;;;4.80;;
22213;SDS011;11276;43.566;27.824;2022-09-01T13:40:42;10.80;;;4.90;;
22213;SDS011;11276;43.566;27.824;2022-09-01T13:43:12;8.23;;;5.00;;
22213;SDS011;11276;43.566;27.824;2022-09-01T13:45:40;8.13;;;5.20;;
22213;SDS011;11276;43.566;27.824;2022-09-01T13:48:07;11.60;;;4.90;;
22213;SDS011;11276;43.566;27.824;2022-09-01T13:50:43;13.07;;;5.13;;
22213;SDS011;11276;43.566;27.824;2022-09-01T13:53:32;13.47;;;5.67;;
22213;SDS011;11276;43.566;27.824;2022-09-01T13:55:59;16.13;;;5.03;;
22213;SDS011;11276;43.566;27.824;2022-09-01T13:58:25;8.80;;;5.10;;
22213;SDS011;11276;43.566;27.824;2022-09-01T14:00:52;10.37;;;5.87;;
22213;SDS011;11276;43.566;27.824;2022-09-01T14:03:20;15.57;;;5.30;;
22213;SDS011;11276;43.566;27.824;2022-09-01T14:05:49;11.13;;;5.00;;
22213;SDS011;11276;43.566;27.824;2022-09-01T14:08:17;17.67;;;4.90;;
22213;SDS011;11276;43.566;27.824;2022-09-01T14:10:46;9.23;;;5.60;;
22213;SDS011;11276;43.566;27.824;2022-09-01T14:13:16;8.77;;;4.87;;
22213;SDS011;11276;43.566;27.824;2022-09-01T14:15:43;9.63;;;5.20;;
22213;SDS011;11276;43.566;27.824;2022-09-01T14:18:09;14.47;;;5.20;;
22213;SDS011;11276;43.566;27.824;2022-09-01T14:20:37;17.43;;;6.73;;
22213;SDS011;11276;43.566;27.824;2022-09-01T14:23:06;12.83;;;5.30;;
22213;SDS011;11276;43.566;27.824;2022-09-01T14:25:36;12.07;;;5.13;;
22213;SDS011;11276;43.566;27.824;2022-09-01T14:28:08;11.10;;;5.60;;
22213;SDS011;11276;43.566;27.824;2022-09-01T14:30:34;11.87;;;5.03;;
22213;SDS011;11276;43.566;27.824;2022-09-01T14:33:02;20.63;;;5.93;;
22213;SDS011;11276;43.566;27.824;2022-09-01T14:35:29;10.17;;;5.43;;
22213;SDS011;11276;43.566;27.824;2022-09-01T14:37:59;11.77;;;5.60;;
22213;SDS011;11276;43.566;27.824;2022-09-01T14:40:27;10.80;;;5.43;;
22213;SDS011;11276;43.566;27.824;2022-09-01T14:42:54;23.23;;;6.20;;
22213;SDS011;11276;43.566;27.824;2022-09-01T14:45:22;10.03;;;5.37;;
22213;SDS011;11276;43.566;27.824;2022-09-01T14:47:52;16.83;;;5.57;;
22213;SDS011;11276;43.566;27.824;2022-09-01T14:50:20;9.83;;;5.50;;
22213;SDS011;11276;43.566;27.824;2022-09-01T14:52:49;8.30;;;5.20;;
22213;SDS011;11276;43.566;27.824;2022-09-01T14:55:18;10.47;;;5.30;;
22213;SDS011;11276;43.566;27.824;2022-09-01T14:57:46;12.73;;;5.00;;
22213;SDS011;11276;43.566;27.824;2022-09-01T15:00:14;7.90;;;5.00;;
22213;SDS011;11276;43.566;27.824;2022-09-01T15:02:41;10.90;;;5.97;;
22213;SDS011;11276;43.566;27.824;2022-09-01T15:05:09;13.63;;;5.00;;
22213;SDS011;11276;43.566;27.824;2022-09-01T15:07:37;16.90;;;5.20;;
22213;SDS011;11276;43.566;27.824;2022-09-01T15:10:05;13.00;;;5.00;;
22213;SDS011;11276;43.566;27.824;2022-09-01T15:12:34;10.43;;;4.90;;
22213;SDS011;11276;43.566;27.824;2022-09-01T15:15:02;15.90;;;5.03;;
22213;SDS011;11276;43.566;27.824;2022-09-01T15:17:29;11.93;;;5.27;;
22213;SDS011;11276;43.566;27.824;2022-09-01T15:19:56;11.97;;;5.10;;
22213;SDS011;11276;43.566;27.824;2022-09-01T15:22:42;11.30;;;4.83;;
22213;SDS011;11276;43.566;27.824;2022-09-01T15:25:09;11.63;;;5.17;;
22213;SDS011;11276;43.566;27.824;2022-09-01T15:27:36;14.67;;;5.13;;
22213;SDS011;11276;43.566;27.824;2022-09-01T15:30:06;13.30;;;4.93;;
22213;SDS011;11276;43.566;27.824;2022-09-01T15:32:40;19.90;;;5.20;;
22213;SDS011;11276;43.566;27.824;2022-09-01T15:35:08;12.90;;;4.90;;
22213;SDS011;11276;43.566;27.824;2022-09-01T15:37:35;11.50;;;5.20;;
22213;SDS011;11276;43.566;27.824;2022-09-01T15:40:02;13.17;;;5.57;;
22213;SDS011;11276;43.566;27.824;2022-09-01T15:42:29;17.90;;;5.50;;
22213;SDS011;11276;43.566;27.824;2022-09-01T15:44:56;11.97;;;5.40;;
22213;SDS011;11276;43.566;27.824;2022-09-01T15:47:23;12.20;;;5.60;;
22213;SDS011;11276;43.566;27.824;2022-09-01T15:49:51;13.20;;;4.80;;
22213;SDS011;11276;43.566;27.824;2022-09-01T15:52:18;10.37;;;4.90;;
22213;SDS011;11276;43.566;27.824;2022-09-01T15:54:46;8.93;;;4.40;;
22213;SDS011;11276;43.566;27.824;2022-09-01T15:57:13;11.43;;;4.60;;
22213;SDS011;11276;43.566;27.824;2022-09-01T15:59:39;10.50;;;4.80;;
22213;SDS011;11276;43.566;27.824;2022-09-01T16:02:08;14.13;;;5.60;;
22213;SDS011;11276;43.566;27.824;2022-09-01T16:04:35;14.63;;;4.57;;
22213;SDS011;11276;43.566;27.824;2022-09-01T16:07:02;10.73;;;4.90;;
22213;SDS011;11276;43.566;27.824;2022-09-01T16:09:29;11.13;;;4.60;;
22213;SDS011;11276;43.566;27.824;2022-09-01T16:11:56;9.57;;;5.00;;